sensor_id;sensor_type;location;lat;lon;timestamp;P1;durP1;ratioP1;P2;durP2;ratioP2
20324;SDS011;10320;49.482;11.256;2023-05-21T00:00:14;12.82;;;11.13;;
20324;SDS011;10320;49.482;11.256;2023-05-21T00:02:40;12.60;;;11.40;;
20324;SDS011;10320;49.482;11.256;2023-05-21T00:05:07;12.13;;;11.03;;
20324;SDS011;10320;49.482;11.256;2023-05-21T00:07:35;11.57;;;10.55;;
20324;SDS011;10320;49.482;11.256;2023-05-21T00:10:01;13.53;;;12.23;;
20324;SDS011;10320;49.482;11.256;2023-05-21T00:12:27;12.50;;;11.10;;
20324;SDS011;10320;49.482;11.256;2023-05-21T00:14:53;12.47;;;11.37;;
20324;SDS011;10320;49.482;11.256;2023-05-21T00:17:19;12.15;;;10.95;;
20324;SDS011;10320;49.482;11.256;2023-05-21T00:19:45;12.47;;;11.37;;
20324;SDS011;10320;49.482;11.256;2023-05-21T00:22:11;12.27;;;11.07;;
20324;SDS011;10320;49.482;11.256;2023-05-21T00:24:38;12.20;;;11.10;;
20324;SDS011;10320;49.482;11.256;2023-05-21T00:27:04;11.20;;;10.17;;
20324;SDS011;10320;49.482;11.256;2023-05-21T00:29:30;12.25;;;11.18;;
20324;SDS011;10320;49.482;11.256;2023-05-21T00:31:56;11.60;;;10.50;;
20324;SDS011;10320;49.482;11.256;2023-05-21T00:34:22;12.00;;;10.90;;
20324;SDS011;10320;49.482;11.256;2023-05-21T00:36:48;12.53;;;11.20;;
20324;SDS011;10320;49.482;11.256;2023-05-21T00:39:14;12.47;;;11.27;;
20324;SDS011;10320;49.482;11.256;2023-05-21T00:41:40;11.82;;;10.60;;
20324;SDS011;10320;49.482;11.256;2023-05-21T00:44:07;12.10;;;11.00;;
20324;SDS011;10320;49.482;11.256;2023-05-21T00:46:33;11.80;;;10.80;;
20324;SDS011;10320;49.482;11.256;2023-05-21T00:48:59;12.20;;;11.10;;
20324;SDS011;10320;49.482;11.256;2023-05-21T00:51:26;12.60;;;11.40;;
20324;SDS011;10320;49.482;11.256;2023-05-21T00:53:55;11.90;;;10.90;;
20324;SDS011;10320;49.482;11.256;2023-05-21T00:56:21;12.20;;;11.07;;
20324;SDS011;10320;49.482;11.256;2023-05-21T00:58:48;11.87;;;10.77;;
20324;SDS011;10320;49.482;11.256;2023-05-21T01:01:16;12.20;;;11.10;;
20324;SDS011;10320;49.482;11.256;2023-05-21T01:03:42;12.63;;;11.23;;
20324;SDS011;10320;49.482;11.256;2023-05-21T01:06:08;11.57;;;10.57;;
20324;SDS011;10320;49.482;11.256;2023-05-21T01:08:35;12.40;;;11.20;;
20324;SDS011;10320;49.482;11.256;2023-05-21T01:11:05;12.73;;;11.50;;
20324;SDS011;10320;49.482;11.256;2023-05-21T01:13:31;12.53;;;11.43;;
20324;SDS011;10320;49.482;11.256;2023-05-21T01:15:58;11.93;;;10.83;;
20324;SDS011;10320;49.482;11.256;2023-05-21T01:18:25;12.47;;;11.17;;
20324;SDS011;10320;49.482;11.256;2023-05-21T01:20:51;12.07;;;10.97;;
20324;SDS011;10320;49.482;11.256;2023-05-21T01:23:17;12.40;;;11.30;;
20324;SDS011;10320;49.482;11.256;2023-05-21T01:25:44;12.10;;;10.90;;
20324;SDS011;10320;49.482;11.256;2023-05-21T01:28:10;11.80;;;10.80;;
20324;SDS011;10320;49.482;11.256;2023-05-21T01:30:36;11.60;;;10.60;;
20324;SDS011;10320;49.482;11.256;2023-05-21T01:36:20;12.07;;;10.97;;
20324;SDS011;10320;49.482;11.256;2023-05-21T01:40:57;11.63;;;10.30;;
20324;SDS011;10320;49.482;11.256;2023-05-21T01:43:28;12.30;;;11.10;;
20324;SDS011;10320;49.482;11.256;2023-05-21T01:45:54;12.07;;;11.07;;
20324;SDS011;10320;49.482;11.256;2023-05-21T01:48:23;12.60;;;11.30;;
20324;SDS011;10320;49.482;11.256;2023-05-21T01:50:50;12.17;;;10.97;;
20324;SDS011;10320;49.482;11.256;2023-05-21T01:53:17;12.37;;;11.17;;
20324;SDS011;10320;49.482;11.256;2023-05-21T01:55:43;13.27;;;11.97;;
20324;SDS011;10320;49.482;11.256;2023-05-21T01:58:09;12.03;;;10.93;;
20324;SDS011;10320;49.482;11.256;2023-05-21T02:00:35;12.20;;;11.10;;
20324;SDS011;10320;49.482;11.256;2023-05-21T02:03:03;12.10;;;10.90;;
20324;SDS011;10320;49.482;11.256;2023-05-21T02:05:30;12.97;;;11.77;;
20324;SDS011;10320;49.482;11.256;2023-05-21T02:07:56;12.30;;;11.20;;
20324;SDS011;10320;49.482;11.256;2023-05-21T02:10:24;12.30;;;11.20;;
20324;SDS011;10320;49.482;11.256;2023-05-21T02:12:50;12.20;;;11.10;;
20324;SDS011;10320;49.482;11.256;2023-05-21T02:15:16;12.40;;;11.33;;
20324;SDS011;10320;49.482;11.256;2023-05-21T02:17:43;12.90;;;11.80;;
20324;SDS011;10320;49.482;11.256;2023-05-21T02:20:10;12.50;;;11.40;;
20324;SDS011;10320;49.482;11.256;2023-05-21T02:22:36;12.83;;;11.63;;
20324;SDS011;10320;49.482;11.256;2023-05-21T02:25:03;13.30;;;12.10;;
20324;SDS011;10320;49.482;11.256;2023-05-21T02:27:29;13.20;;;12.00;;
20324;SDS011;10320;49.482;11.256;2023-05-21T02:29:56;13.60;;;12.40;;
20324;SDS011;10320;49.482;11.256;2023-05-21T02:32:22;12.93;;;11.73;;
20324;SDS011;10320;49.482;11.256;2023-05-21T02:34:48;12.83;;;11.73;;
20324;SDS011;10320;49.482;11.256;2023-05-21T02:37:15;13.53;;;12.13;;
20324;SDS011;10320;49.482;11.256;2023-05-21T02:39:41;12.83;;;11.67;;
20324;SDS011;10320;49.482;11.256;2023-05-21T02:42:07;13.67;;;12.27;;
20324;SDS011;10320;49.482;11.256;2023-05-21T02:44:33;12.73;;;11.63;;
20324;SDS011;10320;49.482;11.256;2023-05-21T02:46:59;12.90;;;11.80;;
20324;SDS011;10320;49.482;11.256;2023-05-21T02:49:25;12.73;;;11.63;;
20324;SDS011;10320;49.482;11.256;2023-05-21T02:51:51;13.27;;;12.07;;
20324;SDS011;10320;49.482;11.256;2023-05-21T02:54:17;14.20;;;12.77;;
20324;SDS011;10320;49.482;11.256;2023-05-21T02:56:43;14.47;;;12.97;;
20324;SDS011;10320;49.482;11.256;2023-05-21T02:59:09;13.80;;;12.50;;
20324;SDS011;10320;49.482;11.256;2023-05-21T03:01:35;14.00;;;12.80;;
20324;SDS011;10320;49.482;11.256;2023-05-21T03:04:01;14.30;;;13.00;;
20324;SDS011;10320;49.482;11.256;2023-05-21T03:06:27;13.83;;;12.53;;
20324;SDS011;10320;49.482;11.256;2023-05-21T03:08:53;13.60;;;12.30;;
20324;SDS011;10320;49.482;11.256;2023-05-21T03:11:19;14.43;;;13.03;;
20324;SDS011;10320;49.482;11.256;2023-05-21T03:13:46;13.50;;;12.30;;
20324;SDS011;10320;49.482;11.256;2023-05-21T03:16:12;14.03;;;12.73;;
20324;SDS011;10320;49.482;11.256;2023-05-21T03:18:38;14.33;;;12.90;;
20324;SDS011;10320;49.482;11.256;2023-05-21T03:21:04;13.83;;;12.43;;
20324;SDS011;10320;49.482;11.256;2023-05-21T03:23:31;13.37;;;12.20;;
20324;SDS011;10320;49.482;11.256;2023-05-21T03:25:57;14.37;;;13.07;;
20324;SDS011;10320;49.482;11.256;2023-05-21T03:28:22;14.40;;;13.10;;
20324;SDS011;10320;49.482;11.256;2023-05-21T03:30:48;14.20;;;12.80;;
20324;SDS011;10320;49.482;11.256;2023-05-21T03:33:15;15.60;;;14.00;;
20324;SDS011;10320;49.482;11.256;2023-05-21T03:35:41;14.93;;;13.43;;
20324;SDS011;10320;49.482;11.256;2023-05-21T03:38:07;14.23;;;12.93;;
20324;SDS011;10320;49.482;11.256;2023-05-21T03:40:33;15.40;;;13.90;;
20324;SDS011;10320;49.482;11.256;2023-05-21T03:42:59;15.50;;;14.00;;
20324;SDS011;10320;49.482;11.256;2023-05-21T03:45:25;14.13;;;12.83;;
20324;SDS011;10320;49.482;11.256;2023-05-21T03:47:51;14.80;;;13.50;;
20324;SDS011;10320;49.482;11.256;2023-05-21T03:50:17;14.53;;;13.20;;
20324;SDS011;10320;49.482;11.256;2023-05-21T03:52:43;15.37;;;13.87;;
20324;SDS011;10320;49.482;11.256;2023-05-21T03:55:09;14.50;;;13.10;;
20324;SDS011;10320;49.482;11.256;2023-05-21T03:57:35;15.13;;;13.67;;
20324;SDS011;10320;49.482;11.256;2023-05-21T04:00:01;15.43;;;13.90;;
20324;SDS011;10320;49.482;11.256;2023-05-21T04:02:29;14.63;;;13.23;;
20324;SDS011;10320;49.482;11.256;2023-05-21T04:04:55;16.00;;;14.50;;
20324;SDS011;10320;49.482;11.256;2023-05-21T04:07:21;15.33;;;13.83;;
20324;SDS011;10320;49.482;11.256;2023-05-21T04:09:47;15.43;;;13.93;;
20324;SDS011;10320;49.482;11.256;2023-05-21T04:12:13;15.43;;;14.03;;
20324;SDS011;10320;49.482;11.256;2023-05-21T04:14:41;15.13;;;13.73;;
20324;SDS011;10320;49.482;11.256;2023-05-21T04:17:07;15.73;;;14.07;;
20324;SDS011;10320;49.482;11.256;2023-05-21T04:19:36;15.37;;;13.93;;
20324;SDS011;10320;49.482;11.256;2023-05-21T04:22:02;15.73;;;14.07;;
20324;SDS011;10320;49.482;11.256;2023-05-21T04:24:29;14.93;;;13.53;;
20324;SDS011;10320;49.482;11.256;2023-05-21T04:26:55;14.73;;;13.30;;
20324;SDS011;10320;49.482;11.256;2023-05-21T04:29:25;15.23;;;13.90;;
20324;SDS011;10320;49.482;11.256;2023-05-21T04:31:51;15.30;;;13.93;;
20324;SDS011;10320;49.482;11.256;2023-05-21T04:34:17;16.30;;;14.70;;
20324;SDS011;10320;49.482;11.256;2023-05-21T04:36:43;15.57;;;14.00;;
20324;SDS011;10320;49.482;11.256;2023-05-21T04:39:12;15.03;;;13.63;;
20324;SDS011;10320;49.482;11.256;2023-05-21T04:41:38;15.20;;;13.80;;
20324;SDS011;10320;49.482;11.256;2023-05-21T04:44:06;15.77;;;14.20;;
20324;SDS011;10320;49.482;11.256;2023-05-21T04:46:32;15.50;;;14.10;;
20324;SDS011;10320;49.482;11.256;2023-05-21T04:48:59;16.30;;;14.70;;
20324;SDS011;10320;49.482;11.256;2023-05-21T04:51:28;15.40;;;13.97;;
20324;SDS011;10320;49.482;11.256;2023-05-21T04:53:54;15.07;;;13.67;;
20324;SDS011;10320;49.482;11.256;2023-05-21T04:56:21;14.33;;;12.97;;
20324;SDS011;10320;49.482;11.256;2023-05-21T04:58:50;14.77;;;13.23;;
20324;SDS011;10320;49.482;11.256;2023-05-21T05:01:16;14.77;;;13.37;;
20324;SDS011;10320;49.482;11.256;2023-05-21T05:03:44;15.53;;;13.90;;
20324;SDS011;10320;49.482;11.256;2023-05-21T05:06:10;14.37;;;13.07;;
20324;SDS011;10320;49.482;11.256;2023-05-21T05:08:36;15.93;;;14.23;;
20324;SDS011;10320;49.482;11.256;2023-05-21T05:11:02;15.48;;;14.05;;
20324;SDS011;10320;49.482;11.256;2023-05-21T05:13:28;14.97;;;13.50;;
20324;SDS011;10320;49.482;11.256;2023-05-21T05:15:54;14.80;;;13.30;;
20324;SDS011;10320;49.482;11.256;2023-05-21T05:18:21;15.23;;;13.83;;
20324;SDS011;10320;49.482;11.256;2023-05-21T05:20:47;14.73;;;13.40;;
20324;SDS011;10320;49.482;11.256;2023-05-21T05:23:13;15.20;;;13.83;;
20324;SDS011;10320;49.482;11.256;2023-05-21T05:25:39;14.53;;;13.23;;
20324;SDS011;10320;49.482;11.256;2023-05-21T05:28:05;15.33;;;13.93;;
20324;SDS011;10320;49.482;11.256;2023-05-21T05:30:31;14.43;;;13.03;;
20324;SDS011;10320;49.482;11.256;2023-05-21T05:32:57;14.18;;;12.88;;
20324;SDS011;10320;49.482;11.256;2023-05-21T05:35:23;14.00;;;12.75;;
20324;SDS011;10320;49.482;11.256;2023-05-21T05:37:49;14.70;;;13.30;;
20324;SDS011;10320;49.482;11.256;2023-05-21T05:40:15;14.10;;;12.75;;
20324;SDS011;10320;49.482;11.256;2023-05-21T05:42:41;13.90;;;12.60;;
20324;SDS011;10320;49.482;11.256;2023-05-21T05:45:08;14.40;;;12.93;;
20324;SDS011;10320;49.482;11.256;2023-05-21T05:47:34;13.80;;;12.60;;
20324;SDS011;10320;49.482;11.256;2023-05-21T05:50:00;13.82;;;12.60;;
20324;SDS011;10320;49.482;11.256;2023-05-21T05:52:26;14.15;;;12.85;;
20324;SDS011;10320;49.482;11.256;2023-05-21T05:54:52;13.30;;;12.15;;
20324;SDS011;10320;49.482;11.256;2023-05-21T05:57:18;13.85;;;12.48;;
20324;SDS011;10320;49.482;11.256;2023-05-21T05:59:46;13.63;;;12.35;;
20324;SDS011;10320;49.482;11.256;2023-05-21T06:02:12;14.05;;;12.80;;
20324;SDS011;10320;49.482;11.256;2023-05-21T06:04:37;13.20;;;12.02;;
20324;SDS011;10320;49.482;11.256;2023-05-21T06:07:03;13.55;;;12.35;;
20324;SDS011;10320;49.482;11.256;2023-05-21T06:09:29;13.70;;;12.43;;
20324;SDS011;10320;49.482;11.256;2023-05-21T06:11:55;13.35;;;12.13;;
20324;SDS011;10320;49.482;11.256;2023-05-21T06:14:22;12.95;;;11.65;;
20324;SDS011;10320;49.482;11.256;2023-05-21T06:16:48;13.73;;;12.32;;
20324;SDS011;10320;49.482;11.256;2023-05-21T06:19:14;13.23;;;12.00;;
20324;SDS011;10320;49.482;11.256;2023-05-21T06:21:40;12.73;;;11.52;;
20324;SDS011;10320;49.482;11.256;2023-05-21T06:24:06;12.65;;;10.93;;
20324;SDS011;10320;49.482;11.256;2023-05-21T06:26:32;13.57;;;12.23;;
20324;SDS011;10320;49.482;11.256;2023-05-21T06:28:58;12.55;;;11.38;;
20324;SDS011;10320;49.482;11.256;2023-05-21T06:31:24;12.80;;;11.70;;
20324;SDS011;10320;49.482;11.256;2023-05-21T06:33:50;12.48;;;11.27;;
20324;SDS011;10320;49.482;11.256;2023-05-21T06:36:16;12.73;;;11.52;;
20324;SDS011;10320;49.482;11.256;2023-05-21T06:38:42;13.10;;;12.00;;
20324;SDS011;10320;49.482;11.256;2023-05-21T06:41:07;12.27;;;11.07;;
20324;SDS011;10320;49.482;11.256;2023-05-21T06:43:33;12.05;;;10.95;;
20324;SDS011;10320;49.482;11.256;2023-05-21T06:45:59;12.70;;;11.52;;
20324;SDS011;10320;49.482;11.256;2023-05-21T06:48:25;13.23;;;11.60;;
20324;SDS011;10320;49.482;11.256;2023-05-21T06:50:51;12.73;;;11.52;;
20324;SDS011;10320;49.482;11.256;2023-05-21T06:53:17;12.80;;;11.70;;
20324;SDS011;10320;49.482;11.256;2023-05-21T06:55:43;12.50;;;11.43;;
20324;SDS011;10320;49.482;11.256;2023-05-21T06:58:09;12.30;;;11.30;;
20324;SDS011;10320;49.482;11.256;2023-05-21T07:00:35;12.07;;;10.98;;
20324;SDS011;10320;49.482;11.256;2023-05-21T07:03:01;12.30;;;10.98;;
20324;SDS011;10320;49.482;11.256;2023-05-21T07:05:26;12.65;;;11.48;;
20324;SDS011;10320;49.482;11.256;2023-05-21T07:07:52;12.70;;;11.50;;
20324;SDS011;10320;49.482;11.256;2023-05-21T07:10:18;12.25;;;11.07;;
20324;SDS011;10320;49.482;11.256;2023-05-21T07:12:44;12.57;;;11.40;;
20324;SDS011;10320;49.482;11.256;2023-05-21T07:15:10;11.95;;;10.90;;
20324;SDS011;10320;49.482;11.256;2023-05-21T07:17:35;12.77;;;11.52;;
20324;SDS011;10320;49.482;11.256;2023-05-21T07:20:01;12.85;;;11.60;;
20324;SDS011;10320;49.482;11.256;2023-05-21T07:22:30;11.88;;;10.85;;
20324;SDS011;10320;49.482;11.256;2023-05-21T07:24:55;12.10;;;11.00;;
20324;SDS011;10320;49.482;11.256;2023-05-21T07:27:21;11.80;;;10.80;;
20324;SDS011;10320;49.482;11.256;2023-05-21T07:29:47;12.23;;;11.05;;
20324;SDS011;10320;49.482;11.256;2023-05-21T07:32:12;11.43;;;10.43;;
20324;SDS011;10320;49.482;11.256;2023-05-21T07:34:38;12.23;;;11.13;;
20324;SDS011;10320;49.482;11.256;2023-05-21T07:37:04;11.63;;;10.63;;
20324;SDS011;10320;49.482;11.256;2023-05-21T07:39:30;12.55;;;11.25;;
20324;SDS011;10320;49.482;11.256;2023-05-21T07:41:55;11.73;;;10.60;;
20324;SDS011;10320;49.482;11.256;2023-05-21T07:44:21;12.20;;;11.05;;
20324;SDS011;10320;49.482;11.256;2023-05-21T07:46:48;12.07;;;11.07;;
20324;SDS011;10320;49.482;11.256;2023-05-21T07:49:13;12.10;;;11.02;;
20324;SDS011;10320;49.482;11.256;2023-05-21T07:51:41;12.18;;;11.02;;
20324;SDS011;10320;49.482;11.256;2023-05-21T07:54:08;12.70;;;11.50;;
20324;SDS011;10320;49.482;11.256;2023-05-21T07:56:34;12.13;;;11.13;;
20324;SDS011;10320;49.482;11.256;2023-05-21T07:58:59;12.15;;;10.90;;
20324;SDS011;10320;49.482;11.256;2023-05-21T08:01:26;12.20;;;10.93;;
20324;SDS011;10320;49.482;11.256;2023-05-21T08:03:53;11.60;;;10.60;;
20324;SDS011;10320;49.482;11.256;2023-05-21T08:06:19;12.25;;;11.10;;
20324;SDS011;10320;49.482;11.256;2023-05-21T08:08:46;11.45;;;10.35;;
20324;SDS011;10320;49.482;11.256;2023-05-21T08:11:12;11.38;;;10.38;;
20324;SDS011;10320;49.482;11.256;2023-05-21T08:13:37;11.93;;;10.82;;
20324;SDS011;10320;49.482;11.256;2023-05-21T08:16:03;12.25;;;11.15;;
20324;SDS011;10320;49.482;11.256;2023-05-21T08:18:30;12.27;;;11.18;;
20324;SDS011;10320;49.482;11.256;2023-05-21T08:20:55;10.93;;;9.82;;
20324;SDS011;10320;49.482;11.256;2023-05-21T08:23:21;11.82;;;10.73;;
20324;SDS011;10320;49.482;11.256;2023-05-21T08:25:47;10.88;;;9.98;;
20324;SDS011;10320;49.482;11.256;2023-05-21T08:28:13;10.73;;;9.82;;
20324;SDS011;10320;49.482;11.256;2023-05-21T08:30:38;11.25;;;10.35;;
20324;SDS011;10320;49.482;11.256;2023-05-21T08:33:05;11.45;;;10.48;;
20324;SDS011;10320;49.482;11.256;2023-05-21T08:35:30;11.60;;;10.55;;
20324;SDS011;10320;49.482;11.256;2023-05-21T08:37:56;10.40;;;9.50;;
20324;SDS011;10320;49.482;11.256;2023-05-21T08:40:22;10.55;;;9.55;;
20324;SDS011;10320;49.482;11.256;2023-05-21T08:42:48;10.70;;;9.80;;
20324;SDS011;10320;49.482;11.256;2023-05-21T08:45:16;10.43;;;9.52;;
20324;SDS011;10320;49.482;11.256;2023-05-21T08:47:45;10.82;;;9.85;;
20324;SDS011;10320;49.482;11.256;2023-05-21T08:50:12;11.20;;;10.13;;
20324;SDS011;10320;49.482;11.256;2023-05-21T08:52:39;12.35;;;10.25;;
20324;SDS011;10320;49.482;11.256;2023-05-21T08:55:06;12.02;;;11.02;;
20324;SDS011;10320;49.482;11.256;2023-05-21T08:57:32;11.57;;;10.48;;
20324;SDS011;10320;49.482;11.256;2023-05-21T08:59:58;10.40;;;9.55;;
20324;SDS011;10320;49.482;11.256;2023-05-21T09:02:26;11.18;;;10.13;;
20324;SDS011;10320;49.482;11.256;2023-05-21T09:04:54;10.88;;;9.77;;
20324;SDS011;10320;49.482;11.256;2023-05-21T09:07:21;11.30;;;10.25;;
20324;SDS011;10320;49.482;11.256;2023-05-21T09:10:02;12.05;;;10.90;;
20324;SDS011;10320;49.482;11.256;2023-05-21T09:12:30;11.45;;;10.35;;
20324;SDS011;10320;49.482;11.256;2023-05-21T09:14:56;11.10;;;10.10;;
20324;SDS011;10320;49.482;11.256;2023-05-21T09:17:24;12.02;;;10.90;;
20324;SDS011;10320;49.482;11.256;2023-05-21T09:20:05;12.35;;;11.20;;
20324;SDS011;10320;49.482;11.256;2023-05-21T09:22:38;11.13;;;10.10;;
20324;SDS011;10320;49.482;11.256;2023-05-21T09:25:06;11.35;;;10.45;;
20324;SDS011;10320;49.482;11.256;2023-05-21T09:27:33;11.27;;;10.35;;
20324;SDS011;10320;49.482;11.256;2023-05-21T09:29:59;11.00;;;10.10;;
20324;SDS011;10320;49.482;11.256;2023-05-21T09:32:25;11.60;;;10.60;;
20324;SDS011;10320;49.482;11.256;2023-05-21T09:34:51;12.35;;;11.25;;
20324;SDS011;10320;49.482;11.256;2023-05-21T09:37:17;11.75;;;10.65;;
20324;SDS011;10320;49.482;11.256;2023-05-21T09:39:43;11.15;;;10.25;;
20324;SDS011;10320;49.482;11.256;2023-05-21T09:42:11;11.13;;;10.13;;
20324;SDS011;10320;49.482;11.256;2023-05-21T09:44:37;11.18;;;10.23;;
20324;SDS011;10320;49.482;11.256;2023-05-21T09:47:04;11.27;;;10.27;;
20324;SDS011;10320;49.482;11.256;2023-05-21T09:49:29;12.25;;;11.10;;
20324;SDS011;10320;49.482;11.256;2023-05-21T09:51:55;12.27;;;11.13;;
20324;SDS011;10320;49.482;11.256;2023-05-21T09:54:22;12.35;;;11.15;;
20324;SDS011;10320;49.482;11.256;2023-05-21T09:56:49;11.10;;;10.20;;
20324;SDS011;10320;49.482;11.256;2023-05-21T09:59:16;11.48;;;10.40;;
20324;SDS011;10320;49.482;11.256;2023-05-21T10:01:42;11.77;;;10.77;;
20324;SDS011;10320;49.482;11.256;2023-05-21T10:04:09;11.77;;;10.77;;
20324;SDS011;10320;49.482;11.256;2023-05-21T10:06:36;11.05;;;10.05;;
20324;SDS011;10320;49.482;11.256;2023-05-21T10:09:08;12.00;;;10.82;;
20324;SDS011;10320;49.482;11.256;2023-05-21T10:11:35;11.57;;;10.57;;
20324;SDS011;10320;49.482;11.256;2023-05-21T10:14:08;10.82;;;9.95;;
20324;SDS011;10320;49.482;11.256;2023-05-21T10:16:40;11.02;;;10.10;;
20324;SDS011;10320;49.482;11.256;2023-05-21T10:19:08;10.20;;;9.40;;
20324;SDS011;10320;49.482;11.256;2023-05-21T10:21:34;10.65;;;9.75;;
20324;SDS011;10320;49.482;11.256;2023-05-21T10:24:01;11.10;;;10.20;;
20324;SDS011;10320;49.482;11.256;2023-05-21T10:26:28;10.85;;;9.98;;
20324;SDS011;10320;49.482;11.256;2023-05-21T10:28:55;10.75;;;9.85;;
20324;SDS011;10320;49.482;11.256;2023-05-21T10:31:22;10.80;;;9.80;;
20324;SDS011;10320;49.482;11.256;2023-05-21T10:33:48;9.57;;;8.82;;
20324;SDS011;10320;49.482;11.256;2023-05-21T10:36:17;9.43;;;8.52;;
20324;SDS011;10320;49.482;11.256;2023-05-21T10:38:44;9.80;;;8.88;;
20324;SDS011;10320;49.482;11.256;2023-05-21T10:41:11;9.32;;;8.52;;
20324;SDS011;10320;49.482;11.256;2023-05-21T10:49:44;8.52;;;7.72;;
20324;SDS011;10320;49.482;11.256;2023-05-21T10:55:06;7.80;;;7.10;;
20324;SDS011;10320;49.482;11.256;2023-05-21T11:00:33;8.57;;;7.78;;
20324;SDS011;10320;49.482;11.256;2023-05-21T11:02:59;8.10;;;7.40;;
20324;SDS011;10320;49.482;11.256;2023-05-21T11:05:37;7.75;;;7.15;;
20324;SDS011;10320;49.482;11.256;2023-05-21T11:08:21;9.75;;;7.82;;
20324;SDS011;10320;49.482;11.256;2023-05-21T11:10:53;8.23;;;7.43;;
20324;SDS011;10320;49.482;11.256;2023-05-21T11:13:22;8.30;;;7.50;;
20324;SDS011;10320;49.482;11.256;2023-05-21T11:26:28;7.53;;;6.82;;
20324;SDS011;10320;49.482;11.256;2023-05-21T11:29:14;7.30;;;6.70;;
20324;SDS011;10320;49.482;11.256;2023-05-21T11:31:46;6.85;;;6.25;;
20324;SDS011;10320;49.482;11.256;2023-05-21T11:34:22;7.72;;;7.03;;
20324;SDS011;10320;49.482;11.256;2023-05-21T11:37:37;9.50;;;8.52;;
20324;SDS011;10320;49.482;11.256;2023-05-21T11:39:41;8.95;;;6.90;;
20324;SDS011;10320;49.482;11.256;2023-05-21T11:42:08;8.23;;;6.45;;
20324;SDS011;10320;49.482;11.256;2023-05-21T11:44:37;8.10;;;6.63;;
20324;SDS011;10320;49.482;11.256;2023-05-21T11:47:13;7.43;;;6.68;;
20324;SDS011;10320;49.482;11.256;2023-05-21T11:49:40;7.63;;;6.80;;
20324;SDS011;10320;49.482;11.256;2023-05-21T11:52:07;6.72;;;6.20;;
20324;SDS011;10320;49.482;11.256;2023-05-21T11:54:52;6.88;;;6.28;;
20324;SDS011;10320;49.482;11.256;2023-05-21T11:57:24;7.60;;;6.32;;
20324;SDS011;10320;49.482;11.256;2023-05-21T11:59:54;7.40;;;6.70;;
20324;SDS011;10320;49.482;11.256;2023-05-21T12:02:23;6.78;;;6.15;;
20324;SDS011;10320;49.482;11.256;2023-05-21T12:04:55;6.45;;;5.88;;
20324;SDS011;10320;49.482;11.256;2023-05-21T12:07:25;6.70;;;6.10;;
20324;SDS011;10320;49.482;11.256;2023-05-21T12:09:55;6.80;;;6.20;;
20324;SDS011;10320;49.482;11.256;2023-05-21T12:12:21;6.47;;;5.95;;
20324;SDS011;10320;49.482;11.256;2023-05-21T12:14:49;7.95;;;6.00;;
20324;SDS011;10320;49.482;11.256;2023-05-21T12:17:20;6.97;;;6.47;;
20324;SDS011;10320;49.482;11.256;2023-05-21T12:19:47;7.65;;;6.30;;
20324;SDS011;10320;49.482;11.256;2023-05-21T12:22:18;6.93;;;6.32;;
20324;SDS011;10320;49.482;11.256;2023-05-21T12:24:44;6.88;;;6.28;;
20324;SDS011;10320;49.482;11.256;2023-05-21T12:27:10;6.97;;;6.28;;
20324;SDS011;10320;49.482;11.256;2023-05-21T12:29:37;7.00;;;6.40;;
20324;SDS011;10320;49.482;11.256;2023-05-21T12:32:06;6.18;;;5.60;;
20324;SDS011;10320;49.482;11.256;2023-05-21T12:37:19;6.70;;;6.05;;
20324;SDS011;10320;49.482;11.256;2023-05-21T12:39:51;6.88;;;6.28;;
20324;SDS011;10320;49.482;11.256;2023-05-21T12:42:25;6.20;;;5.60;;
20324;SDS011;10320;49.482;11.256;2023-05-21T12:44:52;6.45;;;5.68;;
20324;SDS011;10320;49.482;11.256;2023-05-21T12:47:18;6.97;;;6.28;;
20324;SDS011;10320;49.482;11.256;2023-05-21T12:49:46;6.22;;;5.72;;
20324;SDS011;10320;49.482;11.256;2023-05-21T12:52:12;7.20;;;5.95;;
20324;SDS011;10320;49.482;11.256;2023-05-21T12:54:43;6.75;;;6.15;;
20324;SDS011;10320;49.482;11.256;2023-05-21T12:59:57;6.60;;;6.00;;
20324;SDS011;10320;49.482;11.256;2023-05-21T13:02:25;6.75;;;6.25;;
20324;SDS011;10320;49.482;11.256;2023-05-21T13:04:58;6.35;;;5.75;;
20324;SDS011;10320;49.482;11.256;2023-05-21T13:07:25;6.00;;;5.50;;
20324;SDS011;10320;49.482;11.256;2023-05-21T13:09:52;5.97;;;5.47;;
20324;SDS011;10320;49.482;11.256;2023-05-21T13:12:22;6.22;;;5.63;;
20324;SDS011;10320;49.482;11.256;2023-05-21T13:14:48;5.97;;;5.57;;
20324;SDS011;10320;49.482;11.256;2023-05-21T13:17:15;6.07;;;5.55;;
20324;SDS011;10320;49.482;11.256;2023-05-21T13:19:41;6.38;;;5.50;;
20324;SDS011;10320;49.482;11.256;2023-05-21T13:22:07;6.07;;;5.55;;
20324;SDS011;10320;49.482;11.256;2023-05-21T13:24:34;6.85;;;5.55;;
20324;SDS011;10320;49.482;11.256;2023-05-21T13:27:01;5.68;;;5.28;;
20324;SDS011;10320;49.482;11.256;2023-05-21T13:29:27;5.82;;;5.32;;
20324;SDS011;10320;49.482;11.256;2023-05-21T13:32:02;5.95;;;5.40;;
20324;SDS011;10320;49.482;11.256;2023-05-21T13:34:28;5.65;;;4.65;;
20324;SDS011;10320;49.482;11.256;2023-05-21T13:36:53;5.30;;;4.80;;
20324;SDS011;10320;49.482;11.256;2023-05-21T13:39:19;6.25;;;5.28;;
20324;SDS011;10320;49.482;11.256;2023-05-21T13:41:50;5.60;;;5.10;;
20324;SDS011;10320;49.482;11.256;2023-05-21T13:44:16;5.80;;;5.22;;
20324;SDS011;10320;49.482;11.256;2023-05-21T13:46:42;6.75;;;5.07;;
20324;SDS011;10320;49.482;11.256;2023-05-21T13:49:07;5.53;;;5.13;;
20324;SDS011;10320;49.482;11.256;2023-05-21T13:51:33;5.20;;;4.80;;
20324;SDS011;10320;49.482;11.256;2023-05-21T13:53:59;5.30;;;4.80;;
20324;SDS011;10320;49.482;11.256;2023-05-21T13:56:27;5.40;;;4.70;;
20324;SDS011;10320;49.482;11.256;2023-05-21T13:58:53;4.78;;;4.43;;
20324;SDS011;10320;49.482;11.256;2023-05-21T14:01:19;4.63;;;4.32;;
20324;SDS011;10320;49.482;11.256;2023-05-21T14:03:44;5.13;;;4.72;;
20324;SDS011;10320;49.482;11.256;2023-05-21T14:06:10;5.07;;;4.68;;
20324;SDS011;10320;49.482;11.256;2023-05-21T14:08:36;5.53;;;4.90;;
20324;SDS011;10320;49.482;11.256;2023-05-21T14:11:01;5.00;;;4.60;;
20324;SDS011;10320;49.482;11.256;2023-05-21T14:13:27;4.93;;;4.50;;
20324;SDS011;10320;49.482;11.256;2023-05-21T14:15:54;5.00;;;4.60;;
20324;SDS011;10320;49.482;11.256;2023-05-21T14:18:20;4.85;;;4.45;;
20324;SDS011;10320;49.482;11.256;2023-05-21T14:20:46;4.82;;;4.32;;
20324;SDS011;10320;49.482;11.256;2023-05-21T14:23:11;5.57;;;5.07;;
20324;SDS011;10320;49.482;11.256;2023-05-21T14:25:37;5.35;;;4.95;;
20324;SDS011;10320;49.482;11.256;2023-05-21T14:28:03;5.20;;;4.70;;
20324;SDS011;10320;49.482;11.256;2023-05-21T14:30:29;4.95;;;4.55;;
20324;SDS011;10320;49.482;11.256;2023-05-21T14:32:55;5.20;;;4.78;;
20324;SDS011;10320;49.482;11.256;2023-05-21T14:35:21;5.70;;;5.20;;
20324;SDS011;10320;49.482;11.256;2023-05-21T14:37:47;5.47;;;4.97;;
20324;SDS011;10320;49.482;11.256;2023-05-21T14:40:13;5.47;;;5.00;;
20324;SDS011;10320;49.482;11.256;2023-05-21T14:42:39;5.13;;;4.68;;
20324;SDS011;10320;49.482;11.256;2023-05-21T14:45:05;5.10;;;4.70;;
20324;SDS011;10320;49.482;11.256;2023-05-21T14:47:31;6.05;;;4.90;;